x

9410230 - La Jolla, Ca (ljac1) Weather Station

4:30am - Wed 5th Aug 2015 All times are PDT. -7 hours from GMT.

  • Wind
    2mph
  • Sea Temp 63°f
  • 空気 Temp 68°f
  • Sea Pressure 1012.4mb
  • 9410230 - La Jolla, Ca
  • 9410230 - La Jolla, Ca

More Historic Weather Station data

Upgrade to MSW Pro to gain access to the past 30 days of data for over 8000 Wavebouys and Weather Stations around the globe.

Join Pro

Comparision Forecast

View Surf forecast
   
Wed 08/05 4:30am 2
mph
1012.4mb 63f 68f
4:24am 1 2 mph 1012.3mb 65f 68f
4:18am 2
mph
1012.2mb 64f 68f
4:12am  -  1 mph 1012.2mb 65f 68f
4:06am  -  1 mph 1012.3mb 65f 68f
4:00am  -  1 mph 1012.3mb 66f 68f
3:54am  -  1 mph 1012.4mb 66f 68f
3:48am  -  2 mph 1012.4mb 65f 68f
3:42am 2 3 mph 1012.5mb 66f 68f
3:36am 1 2 mph 1012.5mb 67f 68f
3:30am  -  2 mph 1012.6mb 67f 69f
3:24am 2 3 mph 1012.5mb 67f 69f
3:18am 3 5 mph 1012.4mb 67f 69f
3:12am 3
mph
1012.4mb 67f 69f
3:06am 3 5 mph 1012.4mb 66f 69f
3:00am 3
mph
1012.5mb 67f 69f
2:54am 3 5 mph 1012.6mb 67f 69f
2:48am 3
mph
1012.8mb 67f 69f
2:42am 1
mph
1012.8mb 67f 69f
2:36am  -  2 mph 1012.8mb 67f 69f
2:30am 1 2 mph 1012.7mb 67f 69f
2:24am 2
mph
1012.8mb 66f 69f
2:18am  -  1 mph 1012.9mb 65f 69f
2:12am 1
mph
1012.9mb 63f 69f
2:06am 1 2 mph 1012.9mb 62f 69f
2:00am  -  1 mph 1012.9mb 61f 69f
1:54am 1
mph
1013mb 61f 70f
1:48am  -  3 mph 1013.1mb 62f 70f
1:42am 3
mph
1013mb 62f 70f
1:36am 2
mph
1013mb 63f 70f
1:30am 1 2 mph 1013.1mb 64f 70f
1:24am 1 2 mph 1013.2mb 64f 70f
1:18am 1 2 mph 1013.1mb 64f 70f
1:12am 1 2 mph 1013.1mb 64f 70f
1:06am 1 2 mph 1013.2mb 65f 70f
1:00am 2 3 mph 1013.3mb 67f 70f
12:54am 2 3 mph 1013.3mb 67f 70f
12:48am 2 3 mph 1013.3mb 67f 70f
12:42am 2 3 mph 1013.3mb 67f 70f
12:36am 2 3 mph 1013.3mb 67f 70f
12:30am 2
mph
1013.3mb 68f 70f
12:24am 2 3 mph 1013.3mb 68f 70f
12:18am 2 3 mph 1013.3mb 69f 69f
12:12am 2 3 mph 1013.2mb 70f 69f
12:06am 2
mph
1013.2mb 70f 69f
12:00am 1
mph
1013.3mb 70f 69f
Tue 08/04 11:54pm  -  1 mph 1013.2mb 70f 69f
11:48pm 1
mph
1013.3mb 69f 69f
11:42pm 1 2 mph 1013.3mb 70f 70f
11:36pm  -  1 mph 1013.3mb 70f 69f
11:30pm  -  mph 1013.3mb 70f 69f
11:24pm  -  mph 1013.4mb 70f 70f
11:18pm  -  mph 1013.3mb 70f 70f
11:12pm  -  1 mph 1013.3mb 70f 70f
11:06pm  -  mph 1013.3mb 70f 70f
11:00pm  -  1 mph 1013.3mb 70f 70f
10:54pm  -  1 mph 1013.2mb 70f 70f
10:48pm 1 2 mph 1013.2mb 70f 71f
10:42pm 1 2 mph 1013.2mb 70f 71f
10:36pm 1 2 mph 1013.1mb 70f 71f
10:30pm 2 3 mph 1013.1mb 70f 71f
10:24pm 2
mph
1013.1mb 70f 71f
10:18pm 2 3 mph 1013.2mb 70f 71f
10:12pm 3
mph
1013.2mb 70f 71f
10:06pm 5
mph
1013.1mb 70f 71f
10:00pm 5 6 mph 1013mb 70f 71f
9:54pm 2 3 mph 1013mb 70f 71f
9:48pm 3
mph
1013mb 70f 71f
9:42pm 3 5 mph 1012.9mb 71f 71f
9:36pm 3 5 mph 1012.8mb 71f 72f
9:30pm 5
mph
1012.7mb 70f 72f
9:24pm 3 5 mph 1012.7mb 70f 72f
9:18pm 3 5 mph 1012.7mb 70f 72f
9:12pm 5
mph
1012.6mb 70f 72f
9:06pm 5 6 mph 1012.6mb 70f 72f
9:00pm 6
mph
1012.6mb 70f 72f
8:54pm 6 7 mph 1012.6mb 70f 72f
8:48pm 6 7 mph 1012.4mb 70f 72f
8:42pm 7 8 mph 1012.3mb 70f 72f
8:36pm 7 8 mph 1012.3mb 70f 72f
8:30pm 7 8 mph 1012.2mb 69f 72f
8:24pm 7 8 mph 1012.3mb 70f 72f
8:18pm 7 8 mph 1012.2mb 70f 72f
8:12pm 8
mph
1012.1mb 70f 72f
8:06pm 8
mph
1012.1mb 69f 71f
8:00pm 7
mph
1012.1mb 69f 71f
7:54pm 7
mph
1012mb 67f 71f
7:48pm 6 7 mph 1011.9mb 67f 71f
7:42pm 6
mph
1011.8mb 67f 71f
7:36pm 6
mph
1011.8mb 66f 71f
7:30pm 6
mph
1011.9mb 65f 71f
7:24pm 6
mph
1011.9mb 65f 71f
7:18pm 6
mph
1011.9mb 65f 71f
7:12pm 6
mph
1011.9mb 65f 71f
7:06pm 6
mph
1011.9mb 66f 71f
7:00pm 6
mph
1011.9mb 66f 72f
6:54pm 6
mph
1011.9mb 67f 72f
6:48pm 6
mph
1011.8mb 67f 72f
6:42pm 6
mph
1011.8mb 69f 72f
6:36pm 6
mph
1011.9mb 70f 71f
6:30pm 6
mph
1011.8mb 71f 71f
6:24pm 5 6 mph 1011.8mb 71f 72f
6:18pm 6 8 mph 1011.9mb 71f 72f
6:12pm 8 9 mph 1011.8mb 71f 72f
6:06pm 8 9 mph 1011.7mb 71f 72f
6:00pm 8
mph
1011.8mb 70f 72f
5:54pm 7 8 mph 1011.9mb 70f 72f
5:48pm 8 10 mph 1011.8mb 69f 72f
5:42pm 8 10 mph 1011.9mb 68f 72f
5:36pm 10 11 mph 1011.9mb 65f 72f
5:30pm 10 11 mph 1012mb 64f 72f
5:24pm 10 11 mph 1012.1mb 64f 72f
5:18pm 11 13 mph 1012.1mb 64f 72f
5:12pm 11 13 mph 1012.1mb 64f 72f
5:06pm 10 11 mph 1012.2mb 64f 72f
5:00pm 10 13 mph 1012.2mb 65f 72f
4:54pm 9 10 mph 1012.3mb 65f 72f
4:48pm 9 10 mph 1012.3mb 65f 72f
4:42pm 8 10 mph 1012.3mb 66f 72f
4:36pm 8 10 mph 1012.4mb 68f 73f
4:30pm 9 11 mph 1012.4mb 69f 72f
4:24pm 9 11 mph 1012.3mb 69f 72f
4:18pm 10 11 mph 1012.3mb 69f 72f
4:12pm 9 11 mph 1012.3mb 70f 72f
4:06pm 10 11 mph 1012.4mb 69f 72f
4:00pm 10 11 mph 1012.5mb 69f 72f
3:54pm 9 11 mph 1012.5mb 70f 72f
3:48pm 10 11 mph 1012.5mb 70f 72f
3:42pm 10 11 mph 1012.5mb 71f 72f
3:36pm 9 11 mph 1012.4mb 72f 72f
3:30pm 9 11 mph 1012.4mb 72f 72f
3:24pm 9 11 mph 1012.6mb 71f 72f
3:18pm 10 11 mph 1012.6mb 72f 73f
3:12pm 9 11 mph 1012.7mb 72f 73f
3:06pm 9 11 mph 1012.8mb 71f 73f
3:00pm 9 11 mph 1012.9mb 72f 73f
2:54pm 9 10 mph 1012.9mb 72f 72f
2:48pm 9 10 mph 1012.9mb 72f 72f
2:42pm 9 10 mph 1012.9mb 72f 72f
2:36pm 8 9 mph 1012.9mb 71f 72f
2:30pm 8 9 mph 1013mb 71f 72f
2:24pm 7 8 mph 1013.1mb 70f 72f
2:18pm 6 7 mph 1013.1mb 70f 72f
2:12pm 5 7 mph 1013.1mb 69f 72f
2:06pm 6 7 mph 1013.1mb 66f 71f
2:00pm 6 7 mph 1013mb 65f 71f
1:54pm 6
mph
1013mb 62f 71f
1:48pm 5 6 mph 1013mb 61f 71f
1:42pm 3 6 mph 1013mb 61f 71f
1:36pm 5 6 mph 1013.1mb 60f 71f
1:30pm 6 7 mph 1013.2mb 60f 71f
1:24pm 6 7 mph 1013.2mb 60f 71f
1:18pm 6 7 mph 1013.2mb 60f 71f
1:12pm 6
mph
1013.2mb 61f 72f
1:06pm 6 7 mph 1013.2mb 61f 72f
1:00pm 5 6 mph 1013.3mb 63f 72f
12:54pm 5 6 mph 1013.4mb 63f 71f
12:48pm 5 6 mph 1013.4mb 64f 71f
12:42pm 5 6 mph 1013.4mb 65f 71f
12:36pm 5 6 mph 1013.4mb 65f 71f
12:30pm 5 6 mph 1013.5mb 67f 71f
12:24pm 5 6 mph 1013.5mb 67f 71f
12:18pm 5 7 mph 1013.5mb 65f 71f
12:12pm 5 6 mph 1013.5mb 64f 71f
12:06pm 3 6 mph 1013.6mb 64f 71f
12:00pm 5 6 mph 1013.7mb 64f 71f
11:54am 5 6 mph 1013.8mb 63f 71f
11:48am 5 6 mph 1013.8mb 63f 71f
11:42am 5 6 mph 1013.9mb 63f 71f
11:36am 3 5 mph 1013.9mb 63f 71f
11:30am 5 6 mph 1013.8mb 63f 71f
11:24am 3 6 mph 1013.8mb 63f 71f
11:18am 5 6 mph 1013.9mb 63f 71f
11:12am 3 6 mph 1013.9mb 63f 71f
11:06am 3 5 mph 1013.9mb 64f 71f
11:00am 2 5 mph 1013.8mb 66f 71f
10:54am 3 6 mph 1013.9mb 70f 71f
10:48am 3 5 mph 1013.9mb 71f 72f
10:42am 3 5 mph 1013.8mb 71f 71f
10:36am 3 5 mph 1013.8mb 70f 71f
10:30am 3 5 mph 1013.8mb 70f 71f
10:24am 3 6 mph 1013.8mb 69f 71f
10:18am 3 7 mph 1013.8mb 68f 71f
10:12am 3 6 mph 1013.8mb 68f 70f
10:06am 3 5 mph 1013.7mb 69f 70f
10:00am 3 7 mph 1013.7mb 69f 71f
9:54am 6 8 mph 1013.6mb 69f 70f
9:48am 6 8 mph 1013.5mb 70f 70f
9:42am 6 7 mph 1013.5mb 70f 70f
9:36am 5 7 mph 1013.5mb 70f 70f
9:30am 7 8 mph 1013.5mb 70f 70f
9:24am 6 7 mph 1013.4mb 70f 70f
9:18am 6 7 mph 1013.3mb 69f 70f
9:12am 6 7 mph 1013.3mb 69f 70f
9:06am 6 7 mph 1013.3mb 70f 71f
9:00am 6
mph
1013.3mb 70f 71f
8:54am 3 5 mph 1013.2mb 70f 71f
8:48am 5
mph
1013.1mb 71f 70f
8:42am 3 5 mph 1013.2mb 71f 70f
8:36am 2 3 mph 1013.2mb 71f 70f
8:30am 2 5 mph 1013.1mb 71f 70f
8:24am 3 5 mph 1013.1mb 70f 69f
8:18am 2 3 mph 1013mb 70f 69f
8:12am 2 3 mph 1013mb 71f 69f
8:06am 1 5 mph 1013.2mb 71f 69f
8:00am 3 5 mph 1013.2mb 71f 69f
7:54am 2 5 mph 1013.1mb 71f 69f
7:48am 5 6 mph 1013mb 71f 69f
7:42am 5 6 mph 1013mb 71f 69f
7:36am 3 6 mph 1012.7mb 71f 69f
7:30am 6 8 mph 1012.6mb 70f 69f
7:24am 7 8 mph 1012.5mb 71f 69f
7:18am 5
mph
1012.5mb 71f 69f
7:12am 5 6 mph 1012.4mb 70f 69f
7:06am 2
mph
1012.5mb 70f 69f
7:00am 3 6 mph 1012.5mb 70f 69f
6:54am 5 7 mph 1012.4mb 70f 69f
6:48am 6 7 mph 1012.4mb 70f 69f
6:42am 2 3 mph 1012.5mb 70f 69f
6:36am 5
mph
1012.5mb 70f 69f
6:30am 3 5 mph 1012.3mb - 69f
6:24am 5 6 mph 1012.1mb - 69f
6:18am 3 5 mph 1012.2mb 70f 69f
6:12am 5 6 mph 1012.2mb 70f 69f
6:06am 5 6 mph 1012.2mb 70f 69f
6:00am 3 5 mph 1012.2mb 70f 69f
5:54am 3 6 mph 1012.1mb 70f 69f
5:48am 6 7 mph 1012.1mb 70f 69f
5:42am 5 6 mph 1012.1mb 70f 69f
5:36am 3 5 mph 1012mb 70f 69f
5:30am  -  mph 1012mb 70f 69f
5:24am  -  mph 1011.9mb 70f 69f
5:18am 2 5 mph 1011.8mb 70f 69f
5:12am  -  3 mph 1011.7mb 70f 69f
5:06am 2 6 mph 1011.6mb 69f 69f
5:00am 6
mph
1011.6mb 67f 69f
4:54am 5
mph
1011.6mb 65f 69f
4:48am 3 6 mph 1011.6mb 63f 69f
4:42am 3 5 mph 1011.6mb 62f 69f
4:36am 2 3 mph 1011.6mb 62f 70f
4:30am 5 7 mph 1011.6mb 62f 69f
4:24am 3 5 mph 1011.6mb 62f 69f
4:18am 6 7 mph 1011.6mb 63f 70f
4:12am 5 6 mph 1011.6mb 63f 70f
4:06am 3 7 mph 1011.6mb 65f 70f
4:00am 5 6 mph 1011.5mb 65f 70f
3:54am 7 8 mph 1011.5mb 65f 70f
3:48am 3 7 mph 1011.5mb 65f 70f
3:42am 5 6 mph 1011.4mb 66f 70f
3:36am 5 6 mph 1011.4mb 66f 69f
3:30am 3 5 mph 1011.4mb 66f 69f
3:24am 3 5 mph 1011.4mb 67f 69f
3:18am 2 3 mph 1011.5mb 67f 69f
3:12am 1 2 mph 1011.5mb 67f 69f
3:06am  -  1 mph 1011.6mb 67f 69f
3:00am  -  1 mph 1011.5mb 68f 69f
2:54am 1 2 mph 1011.5mb 68f 69f
2:48am 1
mph
1011.5mb 68f 69f
2:42am 1 2 mph 1011.5mb 68f 69f
2:36am  -  1 mph 1011.5mb 68f 69f
2:30am  -  1 mph 1011.5mb 69f 69f
2:24am 1 2 mph 1011.5mb 70f 69f
2:18am 1 2 mph 1011.5mb 71f 69f
2:12am 2 3 mph 1011.5mb 71f 69f
2:06am 2 3 mph 1011.6mb 71f 69f
2:00am 2 3 mph 1011.5mb 70f 69f
1:54am 3
mph
1011.5mb 70f 69f
1:48am 3 5 mph 1011.5mb 69f 69f
1:42am 5
mph
1011.5mb 69f 69f
1:36am 5 6 mph 1011.5mb 68f 70f
1:30am 3 5 mph 1011.6mb 67f 70f
1:24am 5 6 mph 1011.6mb 67f 70f
1:18am 3 5 mph 1011.7mb 65f 70f
1:12am 3 5 mph 1011.7mb 64f 69f
1:06am 2 3 mph 1011.6mb 62f 69f
1:00am 2
mph
1011.6mb 59f 69f
12:54am 1 2 mph 1011.6mb 59f 69f
12:48am 1 2 mph 1011.6mb 59f 69f
12:42am 2
mph
1011.6mb 59f 69f
12:36am 1 2 mph 1011.7mb 60f 69f
12:30am 2 3 mph 1011.8mb 60f 69f
12:24am 3 5 mph 1011.7mb 60f 69f
12:18am 3
mph
1011.7mb 60f 69f
12:12am 3
mph
1011.8mb 60f 69f
12:06am 2 3 mph 1011.9mb 60f 70f
12:00am 2 5 mph 1011.8mb 61f 70f
Mon 08/03 11:54pm 3 5 mph 1011.8mb 61f 70f
11:48pm 3 5 mph 1011.9mb 61f 70f
11:42pm 3
mph
1012mb 61f 70f
11:36pm 2 3 mph 1011.9mb 61f 70f
11:30pm 3
mph
1011.8mb 61f 70f
11:24pm 3
mph
1011.8mb 62f 70f
11:18pm 3
mph
1011.8mb 63f 70f
11:12pm 3
mph
1011.9mb 63f 70f
11:06pm 3
mph
1011.8mb 64f 70f
11:00pm 3
mph
1011.9mb 64f 70f
10:54pm 2 3 mph 1012mb 64f 70f
10:48pm 3 5 mph 1012.1mb 65f 70f
10:42pm 3 5 mph 1012.1mb 65f 70f
10:36pm 5
mph
1012.1mb 65f 70f
10:30pm 3 5 mph 1012.2mb 66f 70f
10:24pm 3
mph
1012.3mb 66f 70f
10:18pm 3 5 mph 1012.3mb 67f 70f
10:12pm 2 3 mph 1012.3mb 70f 70f
10:06pm 2
mph
1012.2mb 72f 70f
10:00pm 2 3 mph 1012.3mb 71f 70f
9:54pm 3
mph
1012.2mb 71f 70f
9:48pm 2
mph
1012.2mb 71f 70f
9:42pm 1 2 mph 1012.2mb 71f 70f
9:36pm 1 2 mph 1012.2mb 71f 70f
9:30pm 2 3 mph 1012mb 71f 70f
9:24pm 3
mph
1012mb 71f 70f
9:18pm 3
mph
1012mb 71f 70f
9:12pm 2 3 mph 1012mb 71f 70f
9:06pm 2 5 mph 1012mb 71f 70f
9:00pm 3 6 mph 1011.8mb 71f 70f
8:54pm 2 3 mph 1011.8mb 71f 70f
8:48pm 2 5 mph 1011.8mb 71f 70f
8:42pm 3 6 mph 1011.8mb 71f 70f
8:36pm 5 6 mph 1011.7mb 71f 70f
8:30pm 2 3 mph 1011.6mb 71f 71f
8:24pm 3 6 mph 1011.6mb 71f 70f
8:18pm 3 5 mph 1011.6mb 72f 71f
8:12pm 3 6 mph 1011.6mb 73f 71f
8:06pm 5 6 mph 1011.6mb 73f 71f
8:00pm 5 7 mph 1011.5mb 73f 70f
7:54pm 6 7 mph 1011.5mb 73f 71f
7:48pm 6 7 mph 1011.5mb 73f 71f
7:42pm 6 7 mph 1011.5mb 73f 70f
7:36pm 5 7 mph 1011.5mb 73f 71f
7:30pm 6 8 mph 1011.4mb 73f 70f
7:24pm 6 7 mph 1011.5mb 73f 71f
7:18pm 6
mph
1011.5mb 73f 71f
7:12pm 3 6 mph 1011.4mb 73f 71f
7:06pm 6 7 mph 1011.4mb 73f 71f
7:00pm 6 7 mph 1011.4mb 73f 71f
6:54pm 6 7 mph 1011.3mb 73f 71f
6:48pm 3 6 mph 1011.2mb 73f 71f
6:42pm 6 8 mph 1011.2mb 73f 71f
6:36pm 6 8 mph 1011.1mb 73f 70f
6:30pm 6 8 mph 1011mb 73f 70f
6:24pm 7 8 mph 1011mb 73f 70f
6:18pm 6 8 mph 1011.1mb 73f 71f
6:12pm 3 6 mph 1011.1mb 73f 71f
6:06pm 7 9 mph 1011.1mb 73f 70f
6:00pm 6 10 mph 1011.1mb 72f 71f
5:54pm 6 10 mph 1011.2mb 72f 71f
5:48pm 7 8 mph 1011.1mb 72f 71f
5:42pm 3 10 mph 1011.2mb 72f 71f
5:36pm 6 8 mph 1011.1mb 72f 71f
5:30pm 3 8 mph 1011.1mb 72f 71f
5:24pm 5 9 mph 1011.2mb 72f 71f
5:18pm 6 9 mph 1011.2mb 72f 71f
5:12pm 6 9 mph 1011.3mb 72f 71f
5:06pm 7 9 mph 1011.2mb 72f 71f
5:00pm 5 10 mph 1011.3mb 72f 71f
4:54pm 6 8 mph 1011.5mb 72f 72f
4:48pm 5 7 mph 1011.5mb 72f 73f
4:42pm 5 7 mph 1011.5mb 72f 73f
4:36pm 5 7 mph 1011.5mb 72f 73f
4:30pm 5 7 mph 1011.5mb 72f 72f
4:24pm 5 7 mph 1011.5mb 72f 72f
4:18pm 6 7 mph 1011.5mb 71f 72f
4:12pm 6 8 mph 1011.6mb 71f 72f
4:06pm 6 8 mph 1011.6mb 70f 72f
4:00pm 7 8 mph 1011.7mb 69f 72f
3:54pm 7 8 mph 1011.7mb 66f 71f
3:48pm 7 8 mph 1011.8mb 67f 71f
3:42pm 7 9 mph 1011.9mb 65f 71f
3:36pm 7 8 mph 1012mb 65f 71f
3:30pm 6 8 mph 1012.1mb 66f 71f
3:24pm 7 9 mph 1012.1mb 65f 71f
3:18pm 7 9 mph 1012.1mb 65f 71f
3:12pm 8 9 mph 1012.2mb 65f 71f
3:06pm 6 8 mph 1012.2mb 65f 72f
3:00pm 6 7 mph 1012.3mb 67f 71f
2:54pm 7 9 mph 1012.4mb 67f 71f
2:48pm 7 9 mph 1012.4mb 67f 71f
2:42pm 7 9 mph 1012.4mb 67f 71f
2:36pm 7 9 mph 1012.5mb 67f 71f
2:30pm 8 9 mph 1012.5mb 69f 71f
2:24pm 8 9 mph 1012.5mb 69f 71f
2:18pm 7 10 mph 1012.5mb 71f 71f
2:12pm 8 10 mph 1012.6mb 72f 71f
2:06pm 9 10 mph 1012.6mb 72f 71f
2:00pm 9 10 mph 1012.7mb 72f 71f
1:54pm 9 10 mph 1012.7mb 72f 71f
1:48pm 8 9 mph 1012.7mb 72f 71f
1:42pm 8 9 mph 1012.7mb 72f 71f
1:36pm 7 8 mph 1012.8mb 72f 71f
1:30pm 6 8 mph 1012.7mb 72f 71f
1:24pm 7 9 mph 1012.7mb 72f 71f
1:18pm 6 8 mph 1012.8mb 71f 70f
1:12pm 7 8 mph 1012.8mb 71f 70f
1:06pm 7 8 mph 1012.9mb 71f 70f
1:00pm 6 8 mph 1012.9mb 71f 71f
12:54pm 6 7 mph 1012.9mb 71f 70f
12:48pm 7 8 mph 1012.9mb 71f 70f
12:42pm 5 7 mph 1012.8mb 71f 71f
12:36pm 5 7 mph 1012.9mb 70f 71f
12:30pm 6 7 mph 1012.8mb 69f 71f
12:24pm 5 6 mph 1012.6mb 68f 71f
12:18pm 5 6 mph 1012.6mb 67f 70f
12:12pm 6
mph
1012.8mb 64f 70f
12:06pm 6 7 mph 1012.8mb 61f 70f
12:00pm 6
mph
1012.9mb 60f 70f
11:54am 5 6 mph 1012.9mb 60f 70f
11:48am 6 7 mph 1012.9mb 61f 70f
11:42am 6
mph
1013mb 63f 70f
11:36am 5 6 mph 1013mb 62f 71f
11:30am 5 6 mph 1012.9mb 64f 71f
11:24am 5 6 mph 1012.9mb 62f 71f
11:18am 5 7 mph 1012.9mb 64f 71f
11:12am 6 7 mph 1013.1mb 63f 70f
11:06am 3 6 mph 1013mb 62f 71f
11:00am 3 6 mph 1013mb 62f 70f
10:54am 7 8 mph 1013.1mb 61f 70f
10:48am 6 7 mph 1013.1mb 61f 70f
10:42am 6 7 mph 1013.1mb 61f 70f
10:36am 5
mph
1013mb 61f 71f
10:30am 5 7 mph 1013.1mb 61f 70f
10:24am 6 7 mph 1013mb 64f 70f
10:18am 5 6 mph 1012.9mb 65f 71f
10:12am 3 6 mph 1012.8mb 69f 71f
10:06am 6 7 mph 1012.8mb 68f 70f
10:00am 5 7 mph 1012.9mb 66f 70f
9:54am 6 7 mph 1012.9mb 65f 70f
9:48am 6 7 mph 1012.9mb 65f 70f
9:42am 7 8 mph 1012.9mb 65f 70f
9:36am 7 8 mph 1012.7mb 65f 71f
9:30am 2
mph
1012.6mb 65f 72f
9:24am 2 3 mph 1012.6mb 66f 72f
9:18am 3 5 mph 1012.7mb 66f 71f
9:12am 2 3 mph 1012.7mb 67f 72f
9:06am 2
mph
1012.7mb 67f 71f
9:00am 2 3 mph 1012.7mb 67f 71f
8:54am 2
mph
1012.6mb 67f 70f
8:48am 1 2 mph 1012.6mb 67f 70f
8:42am  -  1 mph 1012.7mb 68f 71f
8:36am  -  2 mph 1012.7mb 68f 70f
8:30am  -  1 mph 1012.8mb 68f 70f
8:24am 1 2 mph 1012.7mb 68f 69f
8:18am  -  1 mph 1012.6mb 67f 69f
8:12am 1 2 mph 1012.5mb 66f 69f
8:06am 1 2 mph 1012.5mb 66f 69f
8:00am  -  3 mph 1012.5mb 67f 69f
7:54am 2 3 mph 1012.5mb 67f 69f
7:48am 3 5 mph 1012.3mb 67f 69f
7:42am 3 5 mph 1012.4mb 67f 68f
7:36am 3
mph
1012.5mb 67f 68f
7:30am 3
mph
1012.5mb 67f 68f
7:24am 3 6 mph 1012.4mb 67f 68f
7:18am 5
mph
1012.4mb 67f 68f
7:12am 3 5 mph 1012.4mb 67f 68f
7:06am 3 5 mph 1012.3mb 65f 68f
7:00am 3 6 mph 1012.2mb 65f 68f
6:54am 3 5 mph 1012.2mb 65f 68f
6:48am 3 5 mph 1012.1mb 65f 68f
6:42am 2 3 mph 1012.2mb 66f 69f
6:36am 1 5 mph 1012.1mb 65f 68f
6:30am 3 5 mph 1012mb 65f 68f
6:24am 3 5 mph 1012.1mb 66f 68f
6:18am 3 5 mph 1012.1mb 66f 69f
6:12am 5 6 mph 1012mb 66f 68f
6:06am 3 5 mph 1012mb 66f 69f
6:00am 1 3 mph 1012mb 66f 68f
5:54am 1
mph
1011.9mb 66f 68f
5:48am 1 2 mph 1011.8mb 66f 68f
5:42am 1 2 mph 1011.7mb 66f 68f
5:36am  -  1 mph 1011.8mb 66f 68f
5:30am  -  2 mph 1011.7mb 66f 68f
5:24am 3 5 mph 1011.5mb 66f 68f
5:18am 3 5 mph 1011.5mb 65f 68f
5:12am 2
mph
1011.6mb 66f 68f
5:06am  -  2 mph 1011.5mb 65f 68f
5:00am  -  2 mph 1011.4mb 66f 68f
4:54am  -  3 mph 1011.4mb 67f 68f
4:48am 1 5 mph 1011.5mb 70f 68f
4:42am 5 6 mph 1011.5mb 69f 68f
4:36am 3 5 mph 1011.4mb 71f 68f
4:30am 3 6 mph 1011.4mb 71f 68f
4:24am 5 6 mph 1011.4mb 71f 68f
4:18am 2 5 mph 1011.4mb 71f 68f
4:12am 5 7 mph 1011.5mb 71f 68f
4:06am 5 6 mph 1011.4mb 71f 68f
4:00am 6 8 mph 1011.3mb 70f 68f
3:54am 6 8 mph 1011.3mb 71f 68f
3:48am 6
mph
1011.3mb 71f 68f
3:42am 5 6 mph 1011.3mb 71f 68f
3:36am 2 3 mph 1011.3mb 71f 69f
3:30am 2 3 mph 1011.3mb 71f 69f
3:24am 2 3 mph 1011.4mb 71f 68f
3:18am 2 6 mph 1011.4mb 70f 68f
3:12am 3 5 mph 1011.3mb 69f 68f
3:06am 2 6 mph 1011.5mb 68f 68f
3:00am 6
mph
1011.4mb 66f 68f
2:54am 2 5 mph 1011.4mb 67f 69f
2:48am 2 5 mph 1011.5mb 70f 69f
2:42am 2 3 mph 1011.7mb 69f 68f
2:36am 2 9 mph 1011.7mb 69f 68f
2:30am 5 7 mph 1011.6mb 71f 69f
2:24am 3 6 mph 1011.5mb 71f 69f
2:18am 2 5 mph 1011.4mb 70f 69f
2:12am 2 7 mph 1011.3mb 71f 69f
2:06am 5 6 mph 1011.3mb 72f 69f
2:00am 1 2 mph 1011.3mb 72f 69f
1:54am 1 6 mph 1011.4mb 72f 69f
1:48am 2 6 mph 1011.4mb 72f 69f
1:42am 2 3 mph 1011.5mb 72f 69f
1:36am 2 3 mph 1011.4mb 72f 69f
1:30am 1 3 mph 1011.4mb 72f 69f
1:24am 2 3 mph 1011.4mb 72f 69f
1:18am 2 5 mph 1011.4mb 72f 69f
1:12am 3 5 mph 1011.5mb 72f 69f
1:06am 2 3 mph 1011.4mb 72f 69f
1:00am 2
mph
1011.5mb 72f 69f
12:54am 2 5 mph 1011.4mb 72f 69f
12:48am 2 3 mph 1011.4mb 71f 69f
12:42am 2 5 mph 1011.5mb 71f 69f
12:36am 1 2 mph 1011.7mb 71f 69f
12:30am 1 2 mph 1011.6mb 71f 69f
12:24am 2
mph
1011.5mb 70f 69f
12:18am 2 3 mph 1011.6mb 69f 69f
12:12am 2 3 mph 1011.6mb 69f 69f
12:06am  -  2 mph 1011.8mb 67f 69f
12:00am 1 2 mph 1011.8mb 65f 69f
Sun 08/02 11:54pm 3 6 mph 1011.9mb 64f 69f
11:48pm 5 6 mph 1011.9mb 64f 69f
11:42pm 2 3 mph 1012mb 64f 69f
11:36pm 2 5 mph 1011.8mb 65f 69f
11:30pm  -  mph 1011.8mb 65f 69f
11:24pm 1 3 mph 1011.6mb 65f 69f
11:18pm  -  mph 1011.6mb 64f 69f
11:12pm 2 3 mph 1011.6mb 64f 69f
11:06pm 2 6 mph 1011.8mb 64f 69f
11:00pm 2 5 mph 1011.7mb 65f 69f
10:54pm  -  1 mph 1011.5mb 65f 69f
10:48pm  -  3 mph 1011.6mb 65f 69f
10:42pm 2 3 mph 1011.6mb 65f 69f
10:36pm 3 6 mph 1011.6mb 65f 69f
10:30pm 2 5 mph 1011.7mb 66f 69f
10:24pm 3 6 mph 1011.6mb 68f 69f
10:18pm 2 3 mph 1011.6mb 71f 70f
10:12pm 2 6 mph 1011.6mb 72f 69f
10:06pm 3 5 mph 1011.7mb 72f 70f
10:00pm 2 3 mph 1011.6mb 72f 69f
9:54pm 3
mph
1011.5mb 72f 69f
9:48pm  -  5 mph 1011.5mb 72f 69f
9:42pm 2 3 mph 1011.5mb 72f 69f
9:36pm 1 3 mph 1011.4mb 72f 69f
9:30pm 1 5 mph 1011.2mb 72f 69f
9:24pm 1 2 mph 1011.2mb 72f 69f
9:18pm 2 6 mph 1011.1mb 71f 69f
9:12pm 3 6 mph 1011.1mb 71f 69f
9:06pm 2 5 mph 1011mb 71f 69f
9:00pm 3 6 mph 1011.1mb 71f 69f
8:54pm 3 7 mph 1011mb 71f 69f
8:48pm 5 6 mph 1011mb 71f 69f
8:42pm 3 6 mph 1011mb 71f 69f
8:36pm  -  3 mph 1010.9mb 71f 69f
8:30pm 1 7 mph 1011mb 71f 69f
8:24pm 6
mph
1011mb 71f 69f
8:18pm 1 3 mph 1010.9mb 71f 69f
8:12pm 2 3 mph 1010.8mb 71f 69f
8:06pm 1 6 mph 1010.8mb 71f 69f
8:00pm 6 9 mph 1010.8mb 71f 69f
7:54pm  -  7 mph 1010.8mb 71f 70f
7:48pm 7 9 mph 1010.7mb 71f 69f
7:42pm 6 7 mph 1010.7mb 68f 70f
7:36pm 6 9 mph 1010.8mb 66f 70f
7:30pm 3 7 mph 1010.8mb 65f 70f
7:24pm 6 8 mph 1010.7mb 65f 70f
7:18pm 5 7 mph 1010.7mb 65f 70f
7:12pm 6 7 mph 1010.7mb 65f 70f
7:06pm 5 7 mph 1010.6mb 66f 70f
7:00pm 2 3 mph 1010.5mb 67f 70f
6:54pm 2 7 mph 1010.4mb 69f 70f
6:48pm 3 7 mph 1010.4mb 69f 71f
6:42pm 7 8 mph 1010.4mb 70f 70f
6:36pm 3 5 mph 1010.5mb 71f 71f
6:30pm 2 8 mph 1010.5mb 71f 71f
6:24pm 6 7 mph 1010.4mb 71f 71f
6:18pm 2 3 mph 1010.4mb 71f 71f
6:12pm  -  2 mph 1010.5mb 71f 71f
6:06pm 2 5 mph 1010.5mb 71f 71f
6:00pm 3 6 mph 1010.6mb 71f 71f
5:54pm 5 6 mph 1010.7mb 71f 71f
5:48pm 6 7 mph 1010.7mb 71f 70f
5:42pm 5 6 mph 1010.7mb 70f 71f
5:36pm 5 6 mph 1010.8mb 70f 70f
5:30pm 6 7 mph 1010.9mb 72f 71f
5:24pm 5 7 mph 1010.9mb 72f 71f
5:18pm 6 7 mph 1011mb 72f 71f
5:12pm 6 7 mph 1011mb 72f 71f
5:06pm 7 9 mph 1011mb 72f 70f
5:00pm 7 8 mph 1011.1mb 72f 71f
4:54pm 6 8 mph 1011.1mb 71f 71f
4:48pm 6 8 mph 1011.1mb 71f 71f
4:42pm 6 9 mph 1011.1mb 71f 71f
4:36pm 7 9 mph 1011.1mb 71f 71f
4:30pm 7 9 mph 1011.2mb 71f 71f
4:24pm 8 9 mph 1011.2mb 71f 70f
4:18pm 8 9 mph 1011.3mb 71f 71f
4:12pm 8 9 mph 1011.3mb 71f 70f
4:06pm 9 10 mph 1011.4mb 70f 70f
4:00pm 9 13 mph 1011.4mb 70f 70f
3:54pm 10 11 mph 1011.5mb 71f 71f
3:48pm 5 9 mph 1011.5mb 71f 71f
3:42pm 7 9 mph 1011.5mb 70f 71f
3:36pm 8 10 mph 1011.6mb 70f 71f
3:30pm 7 9 mph 1011.6mb 70f 70f
3:24pm 8 11 mph 1011.7mb 69f 70f
3:18pm 7 10 mph 1011.7mb 69f 70f
3:12pm 10 11 mph 1011.7mb 68f 70f
3:06pm 6 9 mph 1011.8mb 68f 71f
3:00pm 9 11 mph 1011.9mb 68f 70f
2:54pm 7 8 mph 1012mb 67f 70f
2:48pm 8 10 mph 1012mb 68f 70f
2:42pm 8
mph
1012.1mb 69f 71f
2:36pm 5 8 mph 1012mb 70f 72f
2:30pm 7 9 mph 1012mb 71f 71f
2:24pm 6 8 mph 1012.1mb 71f 71f
2:18pm 5 7 mph 1012.1mb 71f 72f
2:12pm 7 8 mph 1012.2mb 71f 71f
2:06pm 3 5 mph 1012.3mb 71f 73f
2:00pm 3 5 mph 1012.4mb 71f 73f
1:54pm 2 6 mph 1012.4mb 71f 74f
1:48pm 2 6 mph 1012.4mb 71f 73f
1:42pm 3 6 mph 1012.4mb 71f 73f
1:36pm 6 7 mph 1012.5mb 71f 72f
1:30pm 3 6 mph 1012.6mb 71f 74f
1:24pm 3 6 mph 1012.6mb 71f 73f
1:18pm 3 6 mph 1012.7mb 71f 73f
1:12pm 2 6 mph 1012.7mb 71f 73f
1:06pm 5 6 mph 1012.8mb 71f 72f
1:00pm 3 6 mph 1012.8mb 71f 72f
12:54pm 3 6 mph 1012.9mb 71f 72f
12:48pm 5 6 mph 1012.9mb 71f 71f
12:42pm 6
mph
1013mb 71f 71f
12:36pm 6 7 mph 1013mb 70f 71f
12:30pm 5 7 mph 1013.1mb 70f 71f
12:24pm 5 7 mph 1013.1mb 69f 70f
12:18pm 7 8 mph 1013.2mb 69f 70f
12:12pm 7 8 mph 1013.2mb 69f 70f
12:06pm 7 9 mph 1013.3mb 69f 70f
12:00pm 7 8 mph 1013.3mb 68f 70f
11:54am 7 8 mph 1013.4mb 67f 70f
11:48am 7 8 mph 1013.4mb 68f 70f
11:42am 6 7 mph 1013.4mb 68f 70f
11:36am 3 6 mph 1013.4mb 67f 71f
11:30am  -  3 mph 1013.4mb 67f 70f
11:24am 3 5 mph 1013.4mb 66f 70f
11:18am 2 5 mph 1013.4mb 64f 70f
11:12am 5
mph
1013.4mb 64f 70f
11:06am 5 6 mph 1013.4mb 64f 70f
11:00am 3 5 mph 1013.4mb 64f 70f
10:54am 3
mph
1013.4mb 64f 70f
10:48am 2 3 mph 1013.4mb 65f 70f
10:42am 2 3 mph 1013.4mb 65f 70f
10:36am 2 3 mph 1013.3mb 67f 71f
10:30am 2 5 mph 1013.4mb 65f 70f
10:24am 2 3 mph 1013.4mb 65f 70f
10:18am 2 3 mph 1013.5mb 66f 71f
10:12am 1 2 mph 1013.5mb 65f 71f
10:06am 1 2 mph 1013.5mb 63f 71f
10:00am 1 2 mph 1013.4mb 63f 71f
9:54am  -  2 mph 1013.5mb 62f 70f
9:48am 2
mph
1013.5mb 62f 70f
9:42am 1 2 mph 1013.5mb 62f 70f
9:36am 2
mph
1013.5mb 62f 70f
9:30am 1 2 mph 1013.4mb 62f 71f
9:24am  -  mph 1013.3mb 63f 71f
9:18am  -  mph 1013.3mb 63f 71f
9:12am  -  1 mph 1013.3mb 64f 70f
9:06am  -  2 mph 1013.4mb 64f 70f
9:00am 1 2 mph 1013.4mb 64f 69f
8:54am 1 2 mph 1013.4mb 64f 69f
8:48am 2 3 mph 1013.3mb 64f 69f
8:42am 2
mph
1013.3mb 65f 69f
8:36am 1 3 mph 1013.3mb 64f 69f
8:30am 2
mph
1013.3mb 65f 68f
8:24am 2 3 mph 1013.3mb 65f 68f
8:18am 1 2 mph 1013.3mb 65f 68f
8:12am 2 3 mph 1013.1mb 65f 68f
8:06am 3 6 mph 1013mb 65f 68f
8:00am 3
mph
1013mb 65f 68f
7:54am 2
mph
1013mb 67f 68f
7:48am 2 3 mph 1013mb 64f 68f
7:42am 3 5 mph 1012.9mb 64f 68f
7:36am 1 5 mph 1012.9mb 64f 68f
7:30am 3 5 mph 1012.8mb 64f 68f
7:24am 5
mph
1012.8mb 64f 68f
7:18am 2 3 mph 1012.8mb 64f 68f
7:12am 1 5 mph 1012.7mb 64f 68f
7:06am 3 5 mph 1012.5mb 64f 68f
7:00am 3
mph
1012.4mb 65f 68f
6:54am 1 2 mph 1012.5mb 65f 68f
6:48am 2 3 mph 1012.4mb 65f 68f
6:42am 3 5 mph 1012.3mb 66f 68f
6:36am 2
mph
1012.3mb 66f 68f
6:30am  -  3 mph 1012.3mb 67f 68f
6:24am 1 2 mph 1012.2mb 65f 68f
6:18am 1 5 mph 1012.2mb 64f 68f
6:12am 3 5 mph 1012.1mb 64f 68f
6:06am 5 6 mph 1012.1mb 64f 68f
6:00am 5 6 mph 1012.1mb 63f 68f
5:54am 6 7 mph 1012mb 63f 68f
5:48am 1 2 mph 1012.1mb 64f 68f
5:42am 2 3 mph 1012.1mb 64f 68f
5:36am 2 6 mph 1012.1mb 65f 68f
5:30am 5 6 mph 1012.1mb 65f 68f
5:24am 5 7 mph 1012mb 65f 68f
5:18am 3 5 mph 1011.9mb 66f 68f
5:12am 2 6 mph 1011.8mb 66f 68f
5:06am 2 6 mph 1011.7mb 67f 68f
5:00am 2 5 mph 1011.6mb 69f 68f
4:54am  -  1 mph 1011.6mb 70f 68f
4:48am  -  3 mph 1011.6mb 72f 68f
4:42am 1 5 mph 1011.5mb 72f 68f
4:36am 2 3 mph 1011.4mb 72f 68f
4:30am 3 6 mph 1011.4mb 72f 68f
4:24am 6 7 mph 1011.5mb 72f 68f
4:18am 5 6 mph 1011.5mb 72f 68f
4:12am 5 6 mph 1011.5mb 71f 69f
4:06am 3 5 mph 1011.5mb 71f 69f
4:00am 1 3 mph 1011.6mb 71f 69f
3:54am 3 5 mph 1011.6mb 71f 69f
3:48am 3 6 mph 1011.7mb 71f 68f
3:42am 5
mph
1011.7mb 71f 69f
3:36am 3 6 mph 1011.7mb 71f 69f
3:30am 5 6 mph 1011.7mb 71f 69f
3:24am 2 5 mph 1011.7mb 71f 69f
3:18am 3 6 mph 1011.7mb 70f 69f
3:12am 5 6 mph 1011.8mb 70f 69f
3:06am 3
mph
1011.9mb 69f 69f
3:00am 2 6 mph 1011.9mb 68f 69f
2:54am 5 6 mph 1011.8mb 67f 69f
2:48am 3 6 mph 1012mb 67f 69f
2:42am 6 7 mph 1012.1mb 67f 69f
2:36am 5 6 mph 1012.2mb 67f 69f
2:30am 5 6 mph 1012.2mb 67f 69f
2:24am 3 5 mph 1012.3mb 67f 69f
2:18am 2 5 mph 1012.3mb 68f 69f
2:12am 2 5 mph 1012.3mb 68f 69f
2:06am 5 6 mph 1012.4mb 68f 69f
2:00am 2 3 mph 1012.4mb 69f 69f
1:54am 2 5 mph 1012.5mb 70f 69f
1:48am 3 5 mph 1012.5mb 69f 69f
1:42am 2 5 mph 1012.6mb 70f 69f
1:36am 2 3 mph 1012.7mb 70f 69f
1:30am 2 3 mph 1012.8mb 72f 69f
1:24am 2 5 mph 1012.9mb 72f 69f
1:18am 2 5 mph 1013mb 71f 69f
1:12am 3 6 mph 1013mb 71f 69f
1:06am 3 6 mph 1013mb 71f 69f
1:00am 3 5 mph 1013.1mb 71f 69f
12:54am 2 5 mph 1013mb 70f 69f
12:48am 2 5 mph 1013.1mb 70f 69f
12:42am 3 5 mph 1013.1mb 70f 69f
12:36am 2 3 mph 1013.2mb 69f 69f
12:30am 2 3 mph 1013.2mb 67f 69f
12:24am 3 6 mph 1013.2mb 64f 69f
12:18am 3 5 mph 1013.2mb 63f 69f
12:12am 5 6 mph 1013.2mb 62f 69f
12:06am 6 8 mph 1013.3mb 63f 69f
12:00am 6 7 mph 1013.2mb 63f 69f
Sat 08/01 11:54pm 3 5 mph 1013.2mb 63f 69f
11:48pm  -  mph - 63f -
11:42pm 2 5 mph 1013.1mb 62f -
11:36pm 6
mph
1013.1mb 62f -
11:30pm 5 6 mph 1013.1mb 62f 69f
11:24pm 5 6 mph 1013.3mb 62f 69f
11:18pm 2 5 mph 1013.3mb 62f 69f
11:12pm 5 6 mph 1013.4mb 62f 69f
11:06pm 5 6 mph 1013.5mb 62f 69f
11:00pm 2 6 mph 1013.4mb 62f 69f
10:54pm 2 3 mph 1013.4mb 62f 69f
10:48pm 3 5 mph 1013.5mb 62f 69f
10:42pm 2 5 mph 1013.5mb 62f 69f
10:36pm 3 6 mph 1013.5mb 62f 69f
10:30pm 5 6 mph 1013.5mb 63f 69f
10:24pm 3 6 mph 1013.5mb 63f 69f
10:18pm 5 6 mph 1013.5mb 63f 69f
10:12pm 2 3 mph 1013.5mb 64f 69f
10:06pm 2 5 mph 1013.4mb 64f 69f
10:00pm 5 6 mph 1013.4mb 64f 69f
9:54pm 3 6 mph 1013.4mb 64f 69f
9:48pm 5 6 mph 1013.3mb 64f 69f
9:42pm 2 3 mph 1013.3mb 64f 69f
9:36pm 3 6 mph 1013.2mb 65f 69f
9:30pm 5 6 mph 1013.2mb 65f 69f
9:24pm 6 7 mph 1013.2mb 66f 69f
9:18pm 1 5 mph 1013.1mb 66f 69f
9:12pm 2 7 mph 1013.1mb 66f 69f
9:06pm 6 7 mph 1013mb 66f 69f
9:00pm 5 6 mph 1013mb 67f 69f
8:54pm 3 6 mph 1013mb 67f 69f
8:48pm 3 6 mph 1013mb 67f -
8:42pm 5 7 mph 1012.9mb 68f -
8:36pm 6 7 mph 1012.9mb 68f -
8:30pm 3 5 mph 1012.8mb 69f 69f
8:24pm 1 2 mph 1012.9mb 69f 69f
8:18pm 2 5 mph 1012.8mb 68f 69f
8:12pm 5 8 mph 1012.8mb 70f 69f
8:06pm 8
mph
1012.8mb 70f 69f
8:00pm 2 8 mph 1012.8mb 71f 69f
7:54pm 7 8 mph 1012.8mb 71f 69f
7:48pm 3 6 mph 1012.8mb 71f 69f
7:42pm 2 5 mph 1012.7mb 70f 69f
7:36pm 5 6 mph 1012.7mb 70f 69f
7:30pm 3 6 mph 1012.6mb 70f 69f
7:24pm 3 5 mph 1012.6mb 70f 69f
7:18pm 2 6 mph 1012.6mb 69f 69f
7:12pm 3 6 mph 1012.6mb 71f 69f
7:06pm 3 6 mph 1012.6mb 72f 69f
7:00pm 5 6 mph 1012.6mb 72f 69f
6:54pm 3 5 mph 1012.6mb 72f 70f
6:48pm 2 3 mph 1012.6mb 72f 70f
6:42pm 2 6 mph 1012.6mb 72f 70f
6:36pm 6 7 mph 1012.6mb 72f 70f
6:30pm 5 6 mph 1012.5mb 72f 70f
6:24pm 5 7 mph 1012.6mb 72f 71f
6:18pm 3 6 mph 1012.5mb 72f 71f
6:12pm 6 7 mph 1012.5mb 72f 72f
6:06pm 5 6 mph 1012.4mb 71f 71f
6:00pm 6
mph
1012.5mb 72f 71f
5:54pm 5 6 mph 1012.6mb 71f 71f
5:48pm 6 8 mph 1012.6mb 71f 71f
5:42pm 6 8 mph 1012.6mb 72f 71f
5:36pm 6 9 mph 1012.7mb 72f 71f
5:30pm 6 8 mph 1012.8mb 72f 70f
5:24pm 6 8 mph 1012.8mb 72f 71f
5:18pm 6 8 mph 1012.8mb 72f 71f
5:12pm 7 8 mph 1012.8mb 72f 70f
5:06pm 6 8 mph 1012.9mb 72f 71f
5:00pm 6 8 mph 1013mb 72f 71f
4:54pm 7 8 mph 1013.1mb 72f 71f
4:48pm 7 9 mph 1013.1mb 72f 71f
4:42pm 7 8 mph 1013.1mb 72f 71f
4:36pm 7 9 mph 1013.1mb 72f 71f
4:30pm 7 9 mph 1013.2mb 72f 71f
4:24pm 7 9 mph 1013.2mb 72f 70f
4:18pm 7 10 mph 1013.2mb 71f 71f
4:12pm 7 10 mph 1013.2mb 71f 70f
4:06pm 8 10 mph 1013.2mb 71f 70f
4:00pm 8 10 mph 1013.2mb 71f 70f
3:54pm 7 10 mph 1013.2mb 72f 70f
3:48pm 8 10 mph 1013.2mb 72f 70f
3:42pm 8 10 mph 1013.3mb 72f 70f
3:36pm 8 11 mph 1013.3mb 72f 69f
3:30pm 8 11 mph 1013.4mb 72f 70f
3:24pm 9 11 mph 1013.4mb 72f 70f
3:18pm 9 11 mph 1013.5mb 71f 70f
3:12pm 8 11 mph 1013.5mb 71f 70f
3:06pm 9 11 mph 1013.5mb 71f 70f
3:00pm 9 11 mph 1013.5mb 71f 70f
2:54pm 8 10 mph 1013.5mb 71f 71f
2:48pm 8 10 mph 1013.5mb 71f 71f
2:42pm 8 10 mph 1013.6mb 71f 71f
2:36pm 10 13 mph 1013.7mb 71f 71f
2:30pm 10 11 mph 1013.6mb 71f 70f
2:24pm 10 11 mph 1013.7mb 71f 71f
2:18pm 8 9 mph 1013.8mb 71f 71f
2:12pm 8 10 mph 1013.8mb 71f 71f
2:06pm 8 10 mph 1013.8mb 71f 71f
2:00pm 7 9 mph 1013.9mb 71f 71f
1:54pm 8 10 mph 1014mb 71f 71f
1:48pm 7 9 mph 1014mb 71f 71f
1:42pm 8 10 mph 1014mb 71f 71f
1:36pm 8 10 mph 1014mb 70f 71f
1:30pm 9 10 mph 1014mb 70f 71f
1:24pm 7 9 mph 1014.1mb 69f 71f
1:18pm 7 9 mph 1014.1mb 69f 71f
1:12pm 8 9 mph 1014.1mb 68f 71f
1:06pm 7 9 mph 1014.2mb 69f 71f
1:00pm 8 10 mph 1014.3mb 69f 70f
12:54pm 9 10 mph 1014.3mb 69f 70f
12:48pm 8 10 mph 1014.4mb 69f 70f
12:42pm 8 9 mph 1014.5mb 69f 70f
12:36pm 8 9 mph 1014.6mb 69f 69f
12:30pm 8 10 mph 1014.6mb 69f 69f
12:24pm 8 9 mph 1014.7mb 69f 69f
12:18pm 8 9 mph 1014.8mb 69f 69f